Terminal Aerodrome Forecast
Issued by NWS Atlanta, GA

Home | Current Version | Previous Version | Text Only | Print | Product List | Glossary On
Versions: 1 2 3 4 5 6 7 8 9 10 11 12 13 14 15 16 17 18 19 20 21 22 23 24
669
FTUS42 KFFC 291128
TAFCSG
TAF
KCSG 291128Z 2912/3012 02003KT 1SM BR SCT002
      TEMPO 2912/2914 1/4SM FG VV002
     FM291400 04003KT 5SM BR FEW250
     FM291600 00000KT P6SM FEW045
     FM292000 21006KT P6SM FEW050
     FM300100 21003KT P6SM FEW250=

USA.gov is the U.S. government's official web portal to all federal, state and local government web resources and services.